Time;durP1;ratioP1;P1;durP2;ratioP2;P2;SDS_P1;SDS_P2;PMS_P1;PMS_P2;Temp;Humidity;BMP_temperature;BMP_pressure;BME280_temperature;BME280_humidity;BME280_pressure;Samples;Min_cycle;Max_cycle;Signal;HPM_P1;HPM_P2
2023/04/27 00:00:51;;;;;;;2.50;2.00;;;;;;;22.70;39.76;99303.58;108009;1253;62197;-66
2023/04/27 00:03:18;;;;;;;3.70;2.30;;;;;;;22.70;39.76;99308.33;108020;1253;76178;-67
2023/04/27 00:05:46;;;;;;;3.80;1.60;;;;;;;22.50;40.02;99308.15;108036;1253;72742;-66
2023/04/27 00:08:13;;;;;;;7.10;3.30;;;;;;;22.20;40.52;99314.51;108022;1254;74730;-64
2023/04/27 00:10:40;;;;;;;2.80;1.90;;;;;;;22.14;40.56;99313.52;108074;1254;62789;-67
2023/04/27 00:13:07;;;;;;;2.20;1.70;;;;;;;22.30;40.38;99313.16;108085;1254;60284;-65
2023/04/27 00:15:33;;;;;;;6.20;2.40;;;;;;;22.27;40.37;99314.03;108035;1253;76073;-65
2023/04/27 00:18:00;;;;;;;2.00;1.70;;;;;;;22.31;40.32;99316.62;108062;1254;72478;-65
2023/04/27 00:20:28;;;;;;;5.70;2.40;;;;;;;22.22;40.37;99322.02;108075;1253;74397;-69
2023/04/27 00:22:55;;;;;;;3.70;1.80;;;;;;;22.23;40.44;99326.88;108052;1253;62748;-68
2023/04/27 00:25:22;;;;;;;2.30;2.10;;;;;;;22.59;39.92;99328.91;108053;1253;61164;-66
2023/04/27 00:27:49;;;;;;;2.60;2.20;;;;;;;22.84;39.33;99331.36;108029;1253;74347;-67
2023/04/27 00:30:16;;;;;;;4.10;2.40;;;;;;;22.92;39.15;99326.34;108052;1259;71111;-68
2023/04/27 00:32:43;;;;;;;2.60;2.30;;;;;;;22.49;39.90;99323.84;108081;1253;74815;-65
2023/04/27 00:35:10;;;;;;;2.80;2.40;;;;;;;22.34;40.01;99332.97;108079;1253;62003;-64
2023/04/27 00:37:37;;;;;;;2.50;2.00;;;;;;;22.45;39.76;99341.34;108007;1253;61203;-67
2023/04/27 00:40:08;;;;;;;2.70;2.20;;;;;;;22.37;39.85;99346.85;108000;1253;76255;-67
2023/04/27 00:42:35;;;;;;;5.60;2.40;;;;;;;22.25;40.11;99345.27;108149;1253;71030;-66
2023/04/27 00:45:02;;;;;;;2.60;2.40;;;;;;;22.19;40.16;99346.44;108032;1254;74697;-68
2023/04/27 00:47:29;;;;;;;3.40;2.30;;;;;;;22.20;40.14;99350.98;107943;1253;63014;-67
2023/04/27 00:49:56;;;;;;;2.70;2.40;;;;;;;22.28;40.06;99356.65;108028;1253;61213;-66
2023/04/27 00:52:24;;;;;;;3.50;2.20;;;;;;;22.20;40.16;99356.30;108072;1253;75768;-66
2023/04/27 00:54:51;;;;;;;3.10;2.30;;;;;;;22.42;40.01;99355.15;108069;1253;72488;-63
2023/04/27 00:57:20;;;;;;;3.00;2.20;;;;;;;22.55;39.67;99353.81;108037;1253;71203;-67
2023/04/27 00:59:47;;;;;;;3.00;2.70;;;;;;;22.51;39.63;99351.63;107997;1256;61645;-66
2023/04/27 01:02:13;;;;;;;2.30;2.10;;;;;;;21.95;40.58;99351.61;108048;1253;62287;-66
2023/04/27 01:04:40;;;;;;;3.70;2.20;;;;;;;21.73;40.86;99360.31;108086;1253;75977;-65
2023/04/27 01:07:07;;;;;;;4.10;1.80;;;;;;;21.80;40.71;99358.56;108233;1253;72329;-67
2023/04/27 01:09:34;;;;;;;2.80;1.90;;;;;;;21.80;40.60;99357.91;108068;1253;73765;-66
2023/04/27 01:12:02;;;;;;;1.90;1.40;;;;;;;21.75;40.50;99351.69;107950;1253;63477;-66
2023/04/27 01:14:28;;;;;;;4.10;1.50;;;;;;;21.69;40.30;99349.47;108061;1253;61004;-66
2023/04/27 01:16:55;;;;;;;2.50;1.60;;;;;;;21.44;40.59;99355.02;108028;1253;73572;-67
2023/04/27 01:19:22;;;;;;;2.20;2.00;;;;;;;21.35;40.62;99355.48;108044;1254;70241;-65
2023/04/27 01:21:49;;;;;;;1.60;1.10;;;;;;;21.52;40.12;99351.58;107996;1253;74924;-65
2023/04/27 01:24:16;;;;;;;2.10;1.60;;;;;;;21.54;39.92;99351.95;107993;1258;62093;-67
2023/04/27 01:26:42;;;;;;;1.30;1.10;;;;;;;21.77;39.44;99347.99;107934;1253;62107;-68
2023/04/27 01:29:09;;;;;;;1.30;1.20;;;;;;;21.83;39.33;99351.83;108031;1253;72369;-64
2023/04/27 01:31:37;;;;;;;1.40;1.30;;;;;;;21.90;39.16;99344.41;108038;1253;72333;-64
2023/04/27 01:34:04;;;;;;;2.20;1.60;;;;;;;21.89;39.17;99349.30;108036;1253;75019;-66
2023/04/27 01:36:31;;;;;;;1.80;1.40;;;;;;;21.91;39.05;99352.13;108036;1254;61568;-67
2023/04/27 01:38:58;;;;;;;2.00;1.20;;;;;;;22.09;38.75;99353.62;107943;1253;60406;-68
2023/04/27 01:41:25;;;;;;;3.00;1.20;;;;;;;22.08;38.76;99354.48;108034;1253;73940;-68
2023/04/27 01:43:52;;;;;;;2.30;2.00;;;;;;;22.10;38.49;99349.84;107922;1253;71854;-69
2023/04/27 01:46:20;;;;;;;2.30;1.30;;;;;;;21.80;38.82;99348.91;108011;1259;74243;-66
2023/04/27 01:48:49;;;;;;;1.80;1.40;;;;;;;21.40;39.37;99353.13;108047;1253;61589;-67
2023/04/27 01:51:16;;;;;;;1.50;1.10;;;;;;;21.32;39.53;99354.19;108049;1253;60401;-67
2023/04/27 01:53:43;;;;;;;3.10;1.40;;;;;;;21.35;39.42;99356.59;108153;1253;73445;-67
2023/04/27 01:56:10;;;;;;;3.70;1.40;;;;;;;21.45;39.19;99363.69;108043;1253;72798;-66
2023/04/27 01:58:37;;;;;;;1.60;1.40;;;;;;;21.57;39.11;99365.91;108058;1253;75198;-66
2023/04/27 02:01:04;;;;;;;1.60;1.50;;;;;;;21.76;38.80;99365.02;107990;1253;60869;-66
2023/04/27 02:03:31;;;;;;;2.60;1.80;;;;;;;21.71;38.79;99372.52;108048;1253;62740;-67
2023/04/27 02:05:58;;;;;;;3.10;1.50;;;;;;;21.63;38.98;99369.73;108048;1253;73499;-67
2023/04/27 02:08:25;;;;;;;3.90;1.50;;;;;;;21.71;38.83;99373.95;108100;1253;70100;-67
2023/04/27 02:10:51;;;;;;;3.70;1.80;;;;;;;21.66;38.84;99377.12;108089;1253;74897;-67
2023/04/27 02:13:18;;;;;;;2.10;1.60;;;;;;;21.53;39.01;99381.69;108085;1254;60855;-67
2023/04/27 02:15:45;;;;;;;4.20;2.10;;;;;;;21.56;39.05;99381.83;107974;1253;60343;-68
2023/04/27 02:18:14;;;;;;;4.30;1.90;;;;;;;21.63;38.77;99384.11;108143;1253;76476;-66
2023/04/27 02:20:41;;;;;;;2.10;1.90;;;;;;;21.65;38.63;99383.61;107948;1253;70722;-68
2023/04/27 02:23:08;;;;;;;4.00;1.70;;;;;;;21.59;38.70;99388.80;107983;1253;74798;-67
2023/04/27 02:25:36;;;;;;;2.50;2.10;;;;;;;21.62;38.65;99393.73;108029;1253;61461;-67
2023/04/27 02:28:03;;;;;;;2.90;2.00;;;;;;;21.63;38.62;99391.62;107975;1253;61762;-66
2023/04/27 02:30:31;;;;;;;2.90;1.90;;;;;;;21.53;38.89;99394.22;108043;1253;75006;-67
2023/04/27 02:33:00;;;;;;;3.90;1.90;;;;;;;21.66;38.52;99396.02;108065;1253;72513;-65
2023/04/27 02:35:32;;;;;;;3.90;2.30;;;;;;;21.55;38.84;99393.86;107942;1253;74372;-66
2023/04/27 02:37:58;;;;;;;3.80;1.90;;;;;;;21.76;38.54;99398.48;108019;1253;62091;-66
2023/04/27 02:40:26;;;;;;;2.30;2.00;;;;;;;21.86;38.26;99398.96;108000;1255;62478;-68
2023/04/27 02:42:52;;;;;;;3.70;2.10;;;;;;;21.76;38.51;99403.85;108007;1253;75927;-67
2023/04/27 02:45:20;;;;;;;4.20;2.40;;;;;;;21.70;38.56;99403.30;107982;1253;72653;-67
2023/04/27 02:47:49;;;;;;;3.20;2.20;;;;;;;21.31;38.95;99411.44;108032;1257;72491;-66
2023/04/27 02:50:16;;;;;;;3.00;1.80;;;;;;;21.15;39.17;99415.42;107948;1253;61794;-68
2023/04/27 02:52:43;;;;;;;3.10;2.40;;;;;;;21.19;39.06;99408.59;108020;1253;62407;-67
2023/04/27 02:55:13;;;;;;;5.10;2.40;;;;;;;21.17;39.09;99414.34;108070;1253;74561;-67
2023/04/27 02:57:40;;;;;;;2.80;2.10;;;;;;;21.14;39.19;99407.61;108136;1253;71053;-69
2023/04/27 03:00:09;;;;;;;3.50;2.10;;;;;;;20.91;39.63;99412.60;108020;1258;74510;-69
2023/04/27 03:02:36;;;;;;;3.40;2.20;;;;;;;20.86;39.80;99410.54;108042;1254;61061;-67
2023/04/27 03:05:04;;;;;;;3.60;2.00;;;;;;;20.83;39.68;99408.85;107974;1253;61281;-66
2023/04/27 03:07:31;;;;;;;4.50;2.30;;;;;;;20.82;39.64;99413.98;107947;1253;75778;-67
2023/04/27 03:09:58;;;;;;;1.90;1.60;;;;;;;21.07;39.28;99417.39;108048;1253;72078;-66
2023/04/27 03:12:25;;;;;;;3.10;1.90;;;;;;;20.95;39.48;99421.10;108017;1253;74917;-67
2023/04/27 03:14:52;;;;;;;4.30;1.90;;;;;;;20.69;39.96;99424.38;107956;1256;63418;-66
2023/04/27 03:17:19;;;;;;;3.80;1.80;;;;;;;20.59;40.22;99433.48;108035;1253;61579;-68
2023/04/27 03:19:48;;;;;;;3.70;2.30;;;;;;;20.84;39.76;99438.73;108031;1253;74622;-65
2023/04/27 03:22:14;;;;;;;8.90;3.20;;;;;;;20.96;39.65;99437.84;108085;1253;71500;-66
2023/04/27 03:24:41;;;;;;;3.00;2.10;;;;;;;20.87;39.77;99436.65;108048;1253;74993;-67
2023/04/27 03:27:09;;;;;;;3.80;2.00;;;;;;;21.00;39.49;99439.45;108001;1254;62581;-67
2023/04/27 03:29:35;;;;;;;3.40;2.20;;;;;;;21.10;39.46;99437.79;107916;1253;60057;-67
2023/04/27 03:32:04;;;;;;;7.80;1.90;;;;;;;21.01;39.50;99441.31;107998;1253;76435;-67
2023/04/27 03:34:31;;;;;;;4.30;2.20;;;;;;;21.05;39.50;99444.16;108041;1253;70945;-68
2023/04/27 03:36:57;;;;;;;3.60;2.20;;;;;;;21.00;39.72;99443.90;108090;1253;73160;-70
2023/04/27 03:39:24;;;;;;;3.80;2.10;;;;;;;21.34;39.16;99443.48;108045;1253;62072;-68
2023/04/27 03:41:51;;;;;;;2.70;1.80;;;;;;;21.52;38.92;99445.17;108060;1253;61503;-66
2023/04/27 03:44:18;;;;;;;4.70;2.30;;;;;;;21.57;38.80;99447.89;108108;1253;74284;-68
2023/04/27 03:46:45;;;;;;;4.40;2.30;;;;;;;21.61;38.69;99448.31;108122;1253;72670;-67
2023/04/27 03:49:12;;;;;;;3.80;2.40;;;;;;;21.40;38.86;99449.86;107952;1253;73713;-67
2023/04/27 03:51:41;;;;;;;2.00;1.80;;;;;;;21.25;39.20;99455.92;108050;1253;63233;-69
2023/04/27 03:54:08;;;;;;;6.60;2.50;;;;;;;21.52;38.93;99455.52;108103;1253;60980;-68
2023/04/27 03:56:35;;;;;;;3.70;2.00;;;;;;;21.62;38.66;99452.30;108141;1253;74588;-70
2023/04/27 03:59:03;;;;;;;4.30;2.40;;;;;;;21.70;38.56;99455.88;108224;1253;72526;-69
2023/04/27 04:01:32;;;;;;;2.80;2.30;;;;;;;21.81;38.31;99459.46;108172;1253;73435;-67
2023/04/27 04:03:59;;;;;;;2.60;2.20;;;;;;;21.98;38.01;99458.94;108105;1253;62264;-67
2023/04/27 04:06:27;;;;;;;2.70;2.10;;;;;;;22.00;37.97;99465.89;108168;1253;62108;-69
2023/04/27 04:08:54;;;;;;;2.50;2.20;;;;;;;21.96;38.05;99466.25;108216;1253;76011;-68
2023/04/27 04:11:22;;;;;;;4.40;1.90;;;;;;;21.92;38.15;99465.89;108145;1253;70509;-68
2023/04/27 04:13:49;;;;;;;2.50;1.90;;;;;;;21.96;37.97;99465.13;108051;1253;74265;-67
2023/04/27 04:16:16;;;;;;;4.90;2.30;;;;;;;21.82;38.17;99466.63;108134;1252;60935;-67
2023/04/27 04:18:43;;;;;;;3.00;2.20;;;;;;;21.77;38.24;99462.46;108036;1253;62504;-67
2023/04/27 04:21:10;;;;;;;2.70;2.20;;;;;;;21.62;38.51;99465.70;108070;1252;75863;-68
2023/04/27 04:23:39;;;;;;;3.30;1.90;;;;;;;21.58;38.68;99462.70;108059;1253;72359;-68
2023/04/27 04:26:07;;;;;;;2.40;1.80;;;;;;;21.76;38.39;99460.94;108072;1253;74077;-69
2023/04/27 04:28:37;;;;;;;3.30;1.80;;;;;;;21.89;38.03;99461.90;108043;1253;62596;-67
2023/04/27 04:31:05;;;;;;;3.60;1.90;;;;;;;22.00;37.95;99462.65;108100;1252;62176;-67
2023/04/27 04:33:32;;;;;;;3.00;1.90;;;;;;;22.06;37.78;99464.21;108066;1253;76176;-67
2023/04/27 04:36:02;;;;;;;4.00;2.20;;;;;;;22.21;37.54;99465.10;108048;1252;70045;-68
2023/04/27 04:38:29;;;;;;;2.60;1.90;;;;;;;22.33;37.38;99461.50;108165;1253;71655;-68
2023/04/27 04:40:56;;;;;;;5.50;1.90;;;;;;;22.31;37.29;99463.83;108050;1253;62150;-68
2023/04/27 04:43:23;;;;;;;3.00;1.90;;;;;;;22.27;37.21;99462.23;108090;1253;60742;-68
2023/04/27 04:45:50;;;;;;;3.00;2.00;;;;;;;22.09;37.22;99465.71;108144;1253;76130;-69
2023/04/27 04:48:18;;;;;;;3.10;2.40;;;;;;;22.09;37.30;99469.45;107966;1253;72334;-68
2023/04/27 04:50:45;;;;;;;2.70;2.20;;;;;;;22.20;37.13;99472.49;107914;1253;72656;-69
2023/04/27 04:53:12;;;;;;;4.00;1.70;;;;;;;21.81;37.57;99474.63;108120;1253;61948;-67
2023/04/27 04:55:41;;;;;;;2.60;1.90;;;;;;;22.18;37.03;99477.73;107923;1253;60947;-68
2023/04/27 04:58:08;;;;;;;3.70;1.90;;;;;;;22.18;37.23;99477.59;107784;1253;74903;-68
2023/04/27 05:00:35;;;;;;;3.00;1.90;;;;;;;22.22;36.99;99478.27;108080;1253;70578;-68
2023/04/27 05:03:02;;;;;;;2.50;1.60;;;;;;;21.48;38.33;99483.73;108018;1253;72643;-67
2023/04/27 05:05:29;;;;;;;6.20;1.60;;;;;;;21.80;37.69;99485.23;108057;1253;63422;-68
2023/04/27 05:07:56;;;;;;;2.20;1.90;;;;;;;21.53;37.92;99481.94;107997;1253;62448;-67
2023/04/27 05:10:23;;;;;;;3.80;1.80;;;;;;;21.41;38.32;99490.70;108012;1253;75494;-67
2023/04/27 05:12:50;;;;;;;2.10;1.70;;;;;;;21.80;37.57;99490.45;108028;1253;70659;-67
2023/04/27 05:15:16;;;;;;;2.70;1.80;;;;;;;21.82;37.53;99490.77;108027;1253;73521;-69
2023/04/27 05:17:43;;;;;;;3.60;1.70;;;;;;;21.86;37.54;99491.08;108073;1254;61507;-66
2023/04/27 05:20:10;;;;;;;2.70;1.60;;;;;;;21.60;37.91;99496.09;108045;1253;62415;-68
2023/04/27 05:22:37;;;;;;;2.70;1.50;;;;;;;21.73;37.77;99490.91;108043;1253;73889;-66
2023/04/27 05:25:05;;;;;;;2.00;1.40;;;;;;;21.82;37.53;99489.23;108034;1258;71889;-67
2023/04/27 05:27:32;;;;;;;2.10;1.70;;;;;;;21.80;37.63;99491.29;108013;1260;72683;-67
2023/04/27 05:29:59;;;;;;;1.90;1.40;;;;;;;21.73;37.73;99491.64;108012;1253;62176;-69
2023/04/27 05:32:25;;;;;;;2.20;1.70;;;;;;;21.83;37.68;99492.16;107983;1253;60394;-66
2023/04/27 05:34:52;;;;;;;2.20;1.70;;;;;;;21.80;37.70;99493.27;108008;1253;73812;-68
2023/04/27 05:37:19;;;;;;;2.00;1.80;;;;;;;21.87;37.60;99496.61;107968;1253;70679;-69
2023/04/27 05:39:46;;;;;;;2.70;1.50;;;;;;;22.05;37.36;99503.30;107954;1256;74746;-68
2023/04/27 05:42:13;;;;;;;2.00;1.50;;;;;;;22.11;37.22;99500.88;108021;1253;61212;-68
2023/04/27 05:44:40;;;;;;;3.10;1.70;;;;;;;22.30;37.00;99503.98;108028;1253;60532;-69
2023/04/27 05:47:07;;;;;;;3.00;1.70;;;;;;;22.45;36.70;99505.76;107901;1253;73878;-66
2023/04/27 05:49:33;;;;;;;2.50;1.50;;;;;;;22.42;36.78;99507.77;108000;1253;72783;-68
2023/04/27 05:52:00;;;;;;;2.20;1.60;;;;;;;22.15;37.18;99505.20;107884;1253;75191;-68
2023/04/27 05:54:27;;;;;;;3.40;1.70;;;;;;;22.24;37.06;99505.11;107955;1253;60828;-68
2023/04/27 05:56:54;;;;;;;1.60;1.30;;;;;;;22.18;37.17;99508.30;107970;1253;62100;-68
2023/04/27 05:59:22;;;;;;;4.50;1.50;;;;;;;22.24;37.15;99506.13;107727;1253;295735;-68
2023/04/27 06:03:30;;;;;;;1.90;1.30;;;;;;;17.66;45.52;99521.77;105009;1301;600897;-67
2023/04/27 06:06:01;;;;;;;3.60;1.50;;;;;;;19.17;42.37;99519.08;107356;1267;61059;-69
2023/04/27 06:08:29;;;;;;;3.50;1.40;;;;;;;19.39;41.91;99520.91;107296;1267;61602;-67
2023/04/27 06:10:56;;;;;;;2.90;1.50;;;;;;;19.82;41.17;99524.86;107213;1266;72384;-68
2023/04/27 06:13:23;;;;;;;2.70;1.80;;;;;;;19.69;41.24;99521.44;107256;1267;69874;-69
2023/04/27 06:15:50;;;;;;;2.20;1.70;;;;;;;19.75;41.34;99523.70;107207;1266;73076;-68
2023/04/27 06:18:16;;;;;;;3.10;1.50;;;;;;;19.84;41.23;99526.82;107113;1266;257091;-69
2023/04/27 06:20:43;;;;;;;3.20;1.70;;;;;;;19.94;41.08;99529.19;107342;1263;60258;-67
2023/04/27 06:23:10;;;;;;;2.20;1.60;;;;;;;19.91;41.10;99531.25;107326;1269;74205;-68
2023/04/27 06:25:38;;;;;;;2.70;1.60;;;;;;;19.97;41.16;99529.63;107314;1264;70881;-68
2023/04/27 06:28:06;;;;;;;4.50;1.70;;;;;;;20.21;40.74;99530.39;107283;1264;75282;-69
2023/04/27 06:30:33;;;;;;;2.90;1.50;;;;;;;20.31;40.51;99528.27;107270;1267;62161;-68
2023/04/27 06:33:00;;;;;;;2.00;1.40;;;;;;;20.43;40.36;99528.83;107282;1264;62261;-69
2023/04/27 06:35:27;;;;;;;3.10;1.70;;;;;;;20.31;40.45;99534.00;107331;1264;74436;-69
2023/04/27 06:37:57;;;;;;;4.30;3.00;;;;;;;20.52;40.09;99533.42;107373;1264;72434;-69
2023/04/27 06:40:25;;;;;;;3.90;3.00;;;;;;;20.39;40.31;99536.66;107300;1264;74845;-68
2023/04/27 06:42:52;;;;;;;4.00;1.90;;;;;;;20.27;40.68;99542.92;107256;1263;63327;-68
2023/04/27 06:45:18;;;;;;;3.40;2.00;;;;;;;20.15;40.96;99539.99;108100;1253;61463;-69
2023/04/27 06:47:45;;;;;;;3.50;1.60;;;;;;;20.60;40.20;99540.26;108075;1253;75343;-70
2023/04/27 06:50:15;;;;;;;4.60;2.00;;;;;;;20.75;39.96;99544.09;108219;1253;68961;-69
2023/04/27 06:52:42;;;;;;;3.00;1.60;;;;;;;20.81;40.01;99542.72;108099;1253;72980;-69
2023/04/27 06:55:09;;;;;;;3.50;1.60;;;;;;;20.93;39.94;99546.79;108082;1257;62500;-68
2023/04/27 06:57:35;;;;;;;4.00;1.70;;;;;;;21.23;39.65;99546.36;108245;1254;61428;-67
2023/04/27 07:00:03;;;;;;;5.00;1.60;;;;;;;21.37;39.50;99551.70;108113;1253;74733;-68
2023/04/27 07:02:30;;;;;;;5.30;2.00;;;;;;;21.69;38.95;99556.33;108073;1257;72506;-68
2023/04/27 07:04:57;;;;;;;3.10;1.60;;;;;;;21.61;39.09;99557.23;108113;1252;73163;-69
2023/04/27 07:07:24;;;;;;;3.00;1.80;;;;;;;21.51;39.27;99555.43;108094;1253;63184;-68
2023/04/27 07:09:51;;;;;;;3.50;1.40;;;;;;;21.64;39.01;99559.60;108074;1253;59521;-67
2023/04/27 07:12:18;;;;;;;3.30;1.60;;;;;;;21.63;39.19;99562.95;108133;1253;72959;-67
2023/04/27 07:14:45;;;;;;;2.60;1.70;;;;;;;21.39;39.22;99567.05;108071;1253;72506;-69
2023/04/27 07:17:12;;;;;;;2.30;1.40;;;;;;;21.54;38.95;99566.65;108023;1253;74678;-68
2023/04/27 07:19:39;;;;;;;2.00;1.30;;;;;;;21.44;39.09;99567.85;108251;1253;63168;-69
2023/04/27 07:22:05;;;;;;;2.30;1.30;;;;;;;21.41;39.35;99570.50;108105;1253;60193;-68
2023/04/27 07:24:32;;;;;;;4.10;1.40;;;;;;;21.58;39.07;99570.34;108136;1253;75386;-68
2023/04/27 07:27:01;;;;;;;3.10;1.60;;;;;;;21.76;38.46;99566.92;108052;1254;72756;-70
2023/04/27 07:29:28;;;;;;;2.60;1.60;;;;;;;21.84;38.54;99570.66;108030;1253;75069;-68
2023/04/27 07:31:55;;;;;;;2.20;1.30;;;;;;;21.83;38.62;99575.02;108053;1253;63822;-68
2023/04/27 07:34:22;;;;;;;2.10;1.40;;;;;;;21.77;38.79;99574.48;108099;1253;59471;-67
2023/04/27 07:36:52;;;;;;;2.10;1.60;;;;;;;21.76;38.74;99573.50;108141;1253;72949;-68
2023/04/27 07:39:20;;;;;;;2.90;1.50;;;;;;;21.68;38.69;99576.83;108136;1253;70088;-68
2023/04/27 07:41:47;;;;;;;3.80;1.50;;;;;;;21.78;38.45;99574.63;108081;1253;74815;-67
2023/04/27 07:44:14;;;;;;;2.70;1.20;;;;;;;21.82;38.44;99579.94;108061;1253;63984;-67
2023/04/27 07:46:41;;;;;;;2.70;1.60;;;;;;;21.88;38.26;99581.56;108083;1253;59489;-67
2023/04/27 07:49:08;;;;;;;1.40;1.10;;;;;;;22.07;37.99;99583.88;108224;1253;71685;-67
2023/04/27 07:51:35;;;;;;;2.60;1.40;;;;;;;22.09;37.92;99584.95;108119;1253;72374;-69
2023/04/27 07:54:03;;;;;;;5.00;1.50;;;;;;;22.04;37.79;99583.23;108080;1255;71339;-67
2023/04/27 07:56:29;;;;;;;3.80;1.40;;;;;;;22.03;37.94;99585.02;108192;1254;61755;-70
2023/04/27 07:58:56;;;;;;;4.30;1.80;;;;;;;22.12;37.84;99582.91;108153;1253;62306;-68
2023/04/27 08:01:23;;;;;;;1.50;1.10;;;;;;;22.07;37.72;99585.89;108171;1253;75339;-69
2023/04/27 08:03:50;;;;;;;2.60;1.30;;;;;;;22.18;37.72;99587.88;108135;1254;72268;-68
2023/04/27 08:06:17;;;;;;;2.40;1.40;;;;;;;22.12;37.84;99591.43;108116;1253;71431;-68
2023/04/27 08:08:45;;;;;;;2.30;1.20;;;;;;;22.03;37.90;99597.61;108120;1254;63124;-69
2023/04/27 08:11:12;;;;;;;3.50;1.40;;;;;;;22.23;37.65;99598.52;108055;1258;60292;-67
2023/04/27 08:13:38;;;;;;;1.70;1.30;;;;;;;22.08;37.90;99601.91;108095;1255;72993;-70
2023/04/27 08:16:08;;;;;;;1.70;1.40;;;;;;;22.02;37.92;99608.27;108057;1253;72818;-67
2023/04/27 08:18:38;;;;;;;1.90;1.60;;;;;;;22.26;37.92;99607.67;108064;1253;72699;-68
2023/04/27 08:21:04;;;;;;;1.80;1.50;;;;;;;22.32;37.85;99612.66;108038;1253;63260;-67
2023/04/27 08:23:31;;;;;;;3.40;1.70;;;;;;;22.10;38.04;99614.72;108116;1253;60215;-67
2023/04/27 08:25:58;;;;;;;1.70;1.50;;;;;;;22.12;37.90;99616.63;108080;1254;74128;-69
2023/04/27 08:28:25;;;;;;;1.70;1.60;;;;;;;21.94;38.37;99620.46;108046;1257;71003;-68
2023/04/27 08:30:52;;;;;;;2.20;1.30;;;;;;;22.02;38.08;99615.14;108119;1253;74075;-67
2023/04/27 08:33:19;;;;;;;2.40;1.80;;;;;;;22.04;37.92;99620.29;108151;1253;61433;-69
2023/04/27 08:35:46;;;;;;;1.80;1.70;;;;;;;21.95;38.14;99617.36;108204;1253;62235;-68
2023/04/27 08:38:13;;;;;;;5.00;1.50;;;;;;;21.92;38.35;99616.69;108172;1254;71481;-66
2023/04/27 08:40:42;;;;;;;2.30;1.60;;;;;;;21.78;38.58;99614.41;108074;1253;71169;-68
2023/04/27 08:43:09;;;;;;;2.50;1.60;;;;;;;21.84;38.60;99616.02;108113;1253;72420;-70
2023/04/27 08:45:36;;;;;;;3.00;1.70;;;;;;;21.93;38.36;99613.75;108066;1254;61223;-67
2023/04/27 08:48:03;;;;;;;1.60;1.40;;;;;;;21.81;38.50;99613.27;108083;1253;61803;-67
2023/04/27 08:50:31;;;;;;;2.90;2.00;;;;;;;21.82;38.52;99613.87;108202;1253;73762;-67
2023/04/27 08:52:58;;;;;;;5.00;2.20;;;;;;;22.09;38.28;99612.30;108145;1253;71455;-69
2023/04/27 08:55:25;;;;;;;2.70;1.70;;;;;;;22.24;38.10;99611.79;108114;1253;73535;-69
2023/04/27 08:57:54;;;;;;;4.00;1.70;;;;;;;21.97;38.25;99614.85;108091;1253;61499;-68
2023/04/27 09:00:21;;;;;;;1.60;1.50;;;;;;;21.89;38.47;99617.55;107978;1254;62704;-69
2023/04/27 09:02:47;;;;;;;3.30;2.10;;;;;;;22.03;38.54;99618.28;107983;1254;74798;-67
2023/04/27 09:05:18;;;;;;;2.60;1.50;;;;;;;22.24;38.04;99617.57;108033;1254;72442;-67
2023/04/27 09:07:55;;;;;;;1.60;1.50;;;;;;;22.39;37.92;99614.50;108033;1255;72988;-68
2023/04/27 09:10:22;;;;;;;1.40;1.20;;;;;;;22.32;37.92;99612.83;108002;1254;62123;-68
2023/04/27 09:12:57;;;;;;;1.40;1.30;;;;;;;22.16;38.25;99615.20;107992;1254;60946;-68
2023/04/27 09:15:24;;;;;;;2.40;1.70;;;;;;;22.67;37.93;99615.08;108029;1258;74700;-69
2023/04/27 09:17:57;;;;;;;2.50;1.50;;;;;;;22.62;38.10;99609.14;107869;1254;71595;-71
2023/04/27 09:20:25;;;;;;;1.40;1.30;;;;;;;22.80;37.66;99607.06;108010;1254;74782;-69
2023/04/27 09:22:56;;;;;;;2.10;1.60;;;;;;;22.59;38.20;99606.02;107961;1256;62443;-70
2023/04/27 09:25:29;;;;;;;1.90;1.40;;;;;;;22.88;37.88;99603.07;107948;1253;62256;-70
2023/04/27 09:27:56;;;;;;;1.70;1.30;;;;;;;23.10;37.37;99599.63;107974;1254;72917;-69
2023/04/27 09:30:25;;;;;;;1.90;1.60;;;;;;;23.46;36.72;99600.29;107947;1254;71369;-69
2023/04/27 09:32:53;;;;;;;1.20;1.10;;;;;;;23.33;36.88;99601.52;107961;1254;73602;-69
2023/04/27 09:35:23;;;;;;;1.60;1.30;;;;;;;23.15;37.16;99607.60;107967;1253;63254;-69
2023/04/27 09:37:53;;;;;;;2.00;1.70;;;;;;;23.36;36.84;99608.77;108056;1254;62392;-70
2023/04/27 09:40:26;;;;;;;5.00;1.50;;;;;;;23.79;36.43;99609.03;107962;1254;72688;-69
2023/04/27 09:42:59;;;;;;;1.80;1.30;;;;;;;24.04;35.92;99607.15;107959;1254;72988;-69
2023/04/27 09:45:26;;;;;;;2.70;1.30;;;;;;;23.90;36.00;99606.67;107994;1254;73246;-69
2023/04/27 09:47:53;;;;;;;1.50;1.30;;;;;;;23.59;36.47;99605.52;108048;1254;64042;-69
2023/04/27 09:50:23;;;;;;;1.50;1.40;;;;;;;23.58;36.70;99608.70;107999;1254;62921;-66
2023/04/27 09:52:50;;;;;;;1.40;1.30;;;;;;;23.52;36.54;99603.57;108129;1254;75315;-69
2023/04/27 09:55:30;;;;;;;1.60;1.40;;;;;;;23.45;36.42;99607.86;108061;1253;72561;-68
2023/04/27 09:58:15;;;;;;;2.90;1.80;;;;;;;23.60;36.07;99607.47;107975;1260;75076;-68
2023/04/27 10:01:24;;;;;;;1.80;1.50;;;;;;;23.52;36.36;99611.80;108146;1254;63383;-68
2023/04/27 10:04:02;;;;;;;1.60;1.30;;;;;;;23.73;35.79;99613.15;108090;1253;60545;-66
2023/04/27 10:06:35;;;;;;;1.90;1.50;;;;;;;24.14;35.27;99615.19;108134;1253;75173;-68
2023/04/27 10:09:05;;;;;;;1.90;1.70;;;;;;;23.89;35.63;99618.79;108056;1253;72914;-68
2023/04/27 10:11:39;;;;;;;3.20;1.90;;;;;;;23.80;35.75;99621.03;108123;1253;74327;-66
2023/04/27 10:14:08;;;;;;;2.50;1.60;;;;;;;23.83;35.37;99619.13;108109;1254;62954;-67
2023/04/27 10:16:45;;;;;;;1.80;1.60;;;;;;;23.84;35.16;99620.85;108142;1253;62355;-69
2023/04/27 10:19:12;;;;;;;1.70;1.60;;;;;;;23.82;35.32;99618.74;108162;1253;72261;-68
2023/04/27 10:21:59;;;;;;;3.00;1.40;;;;;;;23.94;34.98;99621.50;108103;1253;72265;-67
2023/04/27 10:24:35;;;;;;;1.70;1.60;;;;;;;23.78;34.80;99614.79;108118;1253;71021;-69
2023/04/27 10:27:04;;;;;;;2.20;1.70;;;;;;;23.66;35.27;99617.23;108170;1253;63842;-69
2023/04/27 10:29:41;;;;;;;1.90;1.70;;;;;;;23.67;35.22;99623.14;108158;1253;60566;-66
2023/04/27 10:32:17;;;;;;;1.70;1.60;;;;;;;23.74;35.09;99627.26;108112;1255;74659;-69
2023/04/27 10:34:46;;;;;;;4.90;2.20;;;;;;;23.34;35.68;99631.18;108270;1253;71196;-68
2023/04/27 10:37:13;;;;;;;2.40;2.10;;;;;;;23.30;35.72;99632.08;108194;1253;72569;-68
2023/04/27 10:39:43;;;;;;;2.20;1.80;;;;;;;23.08;36.04;99631.95;108132;1253;62846;-68
2023/04/27 10:42:26;;;;;;;3.80;1.60;;;;;;;23.17;36.00;99637.30;108068;1258;61615;-69
2023/04/27 10:44:55;;;;;;;1.90;1.70;;;;;;;23.09;36.04;99638.77;108092;1253;75892;-68
2023/04/27 10:47:23;;;;;;;2.30;1.80;;;;;;;23.09;36.10;99641.27;108066;1253;69188;-68
2023/04/27 10:49:53;;;;;;;2.40;2.00;;;;;;;23.08;36.25;99639.84;108064;1253;74996;-68
2023/04/27 10:52:20;;;;;;;2.00;1.70;;;;;;;22.99;36.25;99646.53;108053;1253;64112;-68
2023/04/27 10:54:46;;;;;;;2.70;1.70;;;;;;;23.06;36.27;99645.21;108210;1253;61241;-68
2023/04/27 10:57:13;;;;;;;2.20;2.00;;;;;;;23.23;36.01;99645.70;108127;1253;73775;-68
2023/04/27 10:59:49;;;;;;;2.10;1.90;;;;;;;23.31;35.87;99647.40;108038;1253;70719;-68
2023/04/27 11:02:18;;;;;;;1.90;1.50;;;;;;;23.36;35.51;99645.81;108037;1257;73603;-68
2023/04/27 11:04:45;;;;;;;2.10;1.90;;;;;;;22.86;36.41;99653.87;108090;1252;62534;-66
2023/04/27 11:07:25;;;;;;;2.00;1.60;;;;;;;22.57;36.89;99653.76;108062;1253;59744;-67
2023/04/27 11:09:52;;;;;;;2.10;1.90;;;;;;;22.81;36.60;99657.45;108068;1253;74741;-68
2023/04/27 11:12:20;;;;;;;3.10;1.80;;;;;;;22.39;37.18;99659.76;108121;1253;72474;-67
2023/04/27 11:14:47;;;;;;;2.20;2.00;;;;;;;22.65;36.98;99656.65;108021;1253;70589;-66
2023/04/27 11:17:14;;;;;;;2.40;1.90;;;;;;;23.01;36.60;99657.26;108099;1252;61223;-69
2023/04/27 11:19:47;;;;;;;3.20;1.80;;;;;;;23.36;35.94;99655.70;107995;1253;61158;-68
2023/04/27 11:22:17;;;;;;;3.80;1.90;;;;;;;23.47;35.74;99656.39;108124;1253;76162;-69
2023/04/27 11:24:49;;;;;;;2.50;2.20;;;;;;;23.57;35.75;99657.80;108130;1253;69666;-68
2023/04/27 11:27:16;;;;;;;3.60;2.10;;;;;;;23.64;35.48;99656.57;108108;1253;73566;-70
2023/04/27 11:29:43;;;;;;;2.50;2.20;;;;;;;23.86;34.91;99659.20;108101;1253;60988;-68